Time;durP1;ratioP1;P1;durP2;ratioP2;P2;SDS_P1;SDS_P2;PMS_P1;PMS_P2;Temp;Humidity;BMP_temperature;BMP_pressure;BME280_temperature;BME280_humidity;BME280_pressure;Samples;Min_cycle;Max_cycle;Signal;HPM_P1;HPM_P2
2023/04/13 00:00:11;;;;;;;2.00;1.38;;;;;;;-146.27;100.00;84128.22;5080230;28;20031;-65
2023/04/13 00:02:40;;;;;;;7.75;1.52;;;;;;;-146.27;100.00;84106.09;5079362;28;20043;-65
2023/04/13 00:05:08;;;;;;;3.15;1.88;;;;;;;-146.27;100.00;84122.19;5076712;28;20052;-65
2023/04/13 00:07:37;;;;;;;5.75;1.55;;;;;;;-146.27;100.00;84172.41;5081819;28;20364;-65
2023/04/13 00:10:04;;;;;;;3.80;1.27;;;;;;;-146.27;100.00;84114.13;5083802;28;20032;-65
2023/04/13 00:12:29;;;;;;;1.48;1.20;;;;;;;-146.27;100.00;84134.22;5086081;28;20055;-65
2023/04/13 00:14:55;;;;;;;2.58;1.08;;;;;;;-146.27;100.00;84148.31;5090609;28;20031;-64
2023/04/13 00:17:20;;;;;;;2.22;1.23;;;;;;;-146.27;100.00;84138.25;5093678;28;20058;-65
2023/04/13 00:19:46;;;;;;;2.90;1.05;;;;;;;-146.27;100.00;84140.25;5087416;28;20574;-65
2023/04/13 00:22:13;;;;;;;1.90;1.23;;;;;;;-146.27;100.00;84180.47;5087771;28;20055;-64
2023/04/13 00:24:38;;;;;;;1.90;0.93;;;;;;;-146.27;100.00;84176.44;5091338;28;20019;-65
2023/04/13 00:27:03;;;;;;;2.55;0.90;;;;;;;-146.27;100.00;84204.56;5090368;28;20078;-65
2023/04/13 00:29:29;;;;;;;3.58;0.93;;;;;;;-146.27;100.00;84164.38;5089408;28;20103;-64
2023/04/13 00:31:55;;;;;;;1.13;1.02;;;;;;;-146.27;100.00;84158.34;5091696;28;20031;-65
2023/04/13 00:34:20;;;;;;;2.80;0.88;;;;;;;-146.27;100.00;84152.31;5090084;28;20111;-64
2023/04/13 00:36:45;;;;;;;3.55;1.15;;;;;;;-146.27;100.00;84188.50;5092136;28;20030;-64
2023/04/13 00:39:12;;;;;;;1.88;0.70;;;;;;;-146.27;100.00;84174.44;5085067;28;20076;-66
2023/04/13 00:41:37;;;;;;;2.50;0.85;;;;;;;-146.27;100.00;84220.66;5091089;28;20380;-63
2023/04/13 00:44:03;;;;;;;1.48;0.68;;;;;;;-146.27;100.00;84184.47;5090916;28;20016;-63
2023/04/13 00:46:29;;;;;;;2.70;0.85;;;;;;;-146.27;100.00;84152.31;5087183;28;20051;-65
2023/04/13 00:48:54;;;;;;;1.58;0.88;;;;;;;-146.27;100.00;84158.34;5091963;28;20081;-65
2023/04/13 00:51:20;;;;;;;3.40;1.00;;;;;;;-146.27;100.00;84138.25;5091025;28;20471;-65
2023/04/13 00:53:48;;;;;;;0.60;0.60;;;;;;;-146.27;100.00;84188.50;5090542;28;20053;-64
2023/04/13 00:56:14;;;;;;;3.72;0.85;;;;;;;-146.27;100.00;84178.44;5088528;28;20085;-64
2023/04/13 00:58:39;;;;;;;1.80;0.57;;;;;;;-146.27;100.00;84188.50;5089642;28;20036;-65
2023/04/13 01:01:05;;;;;;;2.45;0.77;;;;;;;-146.27;100.00;84166.38;5087006;28;20020;-65
2023/04/13 01:03:30;;;;;;;5.95;0.65;;;;;;;-146.27;100.00;84184.47;5086830;28;20521;-65
2023/04/13 01:06:20;;;;;;;2.25;0.98;;;;;;;-146.27;100.00;84176.44;5079609;28;20028;-65
2023/04/13 01:08:56;;;;;;;5.70;0.80;;;;;;;-146.27;100.00;84162.38;5084940;28;21133;-65
2023/04/13 01:11:38;;;;;;;5.78;0.90;;;;;;;-146.27;100.00;84152.31;5088665;28;20040;-66
2023/04/13 01:14:28;;;;;;;2.03;1.05;;;;;;;-146.27;100.00;84188.50;5088224;28;20428;-65
2023/04/13 01:16:58;;;;;;;7.32;1.17;;;;;;;-146.27;100.00;84188.50;5086359;28;20039;-65
2023/04/13 01:19:48;;;;;;;5.53;1.45;;;;;;;-146.27;100.00;84216.63;5081470;28;20024;-64
2023/04/13 01:22:15;;;;;;;3.95;1.00;;;;;;;-146.27;100.00;84152.31;5081011;28;20043;-65
2023/04/13 01:25:00;;;;;;;2.72;0.80;;;;;;;-146.27;100.00;84192.50;5086715;28;20027;-65
2023/04/13 01:27:46;;;;;;;5.40;1.20;;;;;;;-146.27;100.00;84188.50;5092002;28;20024;-65
2023/04/13 01:30:24;;;;;;;3.92;1.17;;;;;;;-146.27;100.00;84200.56;5083506;28;20762;-64
2023/04/13 01:32:53;;;;;;;8.55;0.93;;;;;;;-146.27;100.00;84200.56;5090032;28;20434;-64
2023/04/13 01:35:24;;;;;;;4.53;0.88;;;;;;;-146.27;100.00;84142.28;5082591;28;20043;-64
2023/04/13 01:37:50;;;;;;;4.55;1.00;;;;;;;-146.27;100.00;84168.41;5088443;28;20024;-64
2023/04/13 01:40:17;;;;;;;3.58;1.20;;;;;;;-146.27;100.00;84200.56;5086864;28;21582;-64
2023/04/13 01:42:43;;;;;;;3.78;1.20;;;;;;;-146.27;100.00;84204.56;5076670;28;20111;-64
2023/04/13 01:45:14;;;;;;;5.60;1.17;;;;;;;-146.27;100.00;84168.41;5074313;28;20147;-64
2023/04/13 01:47:49;;;;;;;4.88;1.25;;;;;;;-146.27;100.00;84194.53;5089918;28;20047;-64
2023/04/13 01:50:25;;;;;;;3.72;1.02;;;;;;;-146.27;100.00;84208.59;5085416;28;20396;-64
2023/04/13 01:52:57;;;;;;;10.73;1.27;;;;;;;-146.27;100.00;84200.56;5081491;28;20046;-65
2023/04/13 01:55:23;;;;;;;5.78;1.40;;;;;;;-146.27;100.00;84216.63;5089635;28;20077;-64
2023/04/13 01:57:53;;;;;;;4.43;0.75;;;;;;;-146.27;100.00;84218.63;5087335;28;20021;-64
2023/04/13 02:00:19;;;;;;;7.03;1.08;;;;;;;-146.27;100.00;84188.50;5088203;28;20017;-65
2023/04/13 02:02:44;;;;;;;4.90;0.85;;;;;;;-146.27;100.00;84244.78;5088394;28;20074;-65
2023/04/13 02:05:10;;;;;;;6.38;1.10;;;;;;;-146.27;100.00;84226.69;5089443;28;20073;-64
2023/04/13 02:07:38;;;;;;;6.95;1.05;;;;;;;-146.27;100.00;84226.69;5090753;28;20052;-65
2023/04/13 02:10:05;;;;;;;5.43;1.02;;;;;;;-146.27;100.00;84216.63;5078149;28;20099;-65
2023/04/13 02:12:32;;;;;;;9.73;1.17;;;;;;;-146.27;100.00;84266.88;5084676;28;20444;-64
2023/04/13 02:14:59;;;;;;;4.55;1.27;;;;;;;-146.27;100.00;84196.53;5074947;28;20020;-64
2023/04/13 02:17:26;;;;;;;9.45;1.02;;;;;;;-146.27;100.00;84228.69;5091216;28;20059;-64
2023/04/13 02:19:52;;;;;;;3.45;1.00;;;;;;;-146.27;100.00;84228.69;5090469;28;20380;-64
2023/04/13 02:22:17;;;;;;;9.38;1.25;;;;;;;-146.27;100.00;84238.75;5091994;28;20016;-65
2023/04/13 02:24:42;;;;;;;6.97;1.02;;;;;;;-146.27;100.00;84240.75;5083692;28;20028;-63
2023/04/13 02:27:09;;;;;;;5.55;1.30;;;;;;;-146.27;100.00;84236.72;5093429;28;20031;-64
2023/04/13 02:29:34;;;;;;;7.07;1.13;;;;;;;-146.27;100.00;84174.44;5088923;28;20043;-64
2023/04/13 02:32:00;;;;;;;5.63;1.58;;;;;;;-146.27;100.00;84252.81;5095719;28;20016;-65
2023/04/13 02:34:26;;;;;;;4.93;1.20;;;;;;;-146.27;100.00;84240.75;5089887;28;20455;-65
2023/04/13 02:36:52;;;;;;;7.85;1.08;;;;;;;-146.27;100.00;84228.69;5088440;28;20093;-66
2023/04/13 02:39:18;;;;;;;4.40;0.85;;;;;;;-146.27;100.00;84236.72;5086803;28;20040;-64
2023/04/13 02:41:43;;;;;;;7.53;0.90;;;;;;;-146.27;100.00;84264.88;5081996;28;20021;-64
2023/04/13 02:44:10;;;;;;;5.85;1.30;;;;;;;-146.27;100.00;84232.72;5090249;28;20034;-65
2023/04/13 02:46:35;;;;;;;6.18;1.13;;;;;;;-146.27;100.00;84202.56;5094238;28;20031;-65
2023/04/13 02:49:01;;;;;;;7.72;0.90;;;;;;;-146.27;100.00;84228.69;5090667;28;20077;-65
2023/04/13 02:51:26;;;;;;;6.75;1.00;;;;;;;-146.27;100.00;84234.72;5084732;28;20016;-64
2023/04/13 02:53:52;;;;;;;4.97;1.00;;;;;;;-146.27;100.00;84192.50;5082651;28;20103;-64
2023/04/13 02:56:17;;;;;;;5.95;0.88;;;;;;;-146.27;100.00;84228.69;5093909;28;20114;-64
2023/04/13 02:58:43;;;;;;;4.15;1.00;;;;;;;-146.27;100.00;84180.47;5091804;28;20035;-65
2023/04/13 03:01:09;;;;;;;2.20;0.70;;;;;;;-146.27;100.00;84162.38;5092816;28;20016;-65
2023/04/13 03:03:34;;;;;;;8.07;1.77;;;;;;;-146.27;100.00;84186.47;5084025;28;20492;-64
2023/04/13 03:06:00;;;;;;;9.38;1.33;;;;;;;-146.27;100.00;84166.38;5083631;28;20019;-65
2023/04/13 03:08:26;;;;;;;8.45;1.27;;;;;;;-146.27;100.00;84168.41;5092901;28;20031;-65
2023/04/13 03:10:53;;;;;;;11.35;1.60;;;;;;;-146.27;100.00;84164.38;5094071;28;20024;-64
2023/04/13 03:13:19;;;;;;;5.32;1.05;;;;;;;-146.27;100.00;84136.25;5090226;28;20039;-64
2023/04/13 03:15:45;;;;;;;10.05;1.30;;;;;;;-146.27;100.00;84108.09;5087478;28;20278;-65
2023/04/13 03:18:12;;;;;;;4.70;1.27;;;;;;;-146.27;100.00;84120.16;5093605;28;20361;-64
2023/04/13 03:20:37;;;;;;;5.55;1.40;;;;;;;-146.27;100.00;84108.09;5093600;28;20031;-65
2023/04/13 03:23:03;;;;;;;4.65;1.23;;;;;;;-146.27;100.00;84092.03;5092809;28;20036;-63
2023/04/13 03:25:29;;;;;;;6.38;1.42;;;;;;;-146.27;100.00;84108.09;5093916;28;20050;-64
2023/04/13 03:27:55;;;;;;;6.43;1.58;;;;;;;-146.27;100.00;84114.13;5091249;28;20032;-66
2023/04/13 03:30:20;;;;;;;9.73;1.65;;;;;;;-146.27;100.00;84136.25;5081558;28;20078;-65
2023/04/13 03:32:45;;;;;;;7.35;1.75;;;;;;;-146.27;100.00;84120.16;5087900;28;20031;-63
2023/04/13 03:35:11;;;;;;;3.95;1.20;;;;;;;-146.27;100.00;84158.34;5076833;28;20032;-64
2023/04/13 03:37:41;;;;;;;2.80;1.17;;;;;;;-146.27;100.00;84059.88;5083315;28;20063;-65
2023/04/13 03:40:09;;;;;;;10.50;1.45;;;;;;;-146.27;100.00;84116.16;5090749;28;20077;-65
2023/04/13 03:42:35;;;;;;;8.88;1.65;;;;;;;-146.27;100.00;84120.16;5092535;28;20035;-65
2023/04/13 03:45:01;;;;;;;7.30;1.17;;;;;;;-146.27;100.00;84112.13;5089990;28;20032;-65
2023/04/13 03:47:26;;;;;;;10.05;1.58;;;;;;;-146.27;100.00;84118.16;5088357;28;20491;-64
2023/04/13 03:49:51;;;;;;;9.15;1.33;;;;;;;-146.27;100.00;84100.06;5092439;28;20024;-64
2023/04/13 03:52:17;;;;;;;6.10;1.25;;;;;;;-146.27;100.00;84110.13;5091168;28;20060;-64
2023/04/13 03:54:42;;;;;;;4.45;1.13;;;;;;;-146.27;100.00;84100.06;5084920;28;20128;-65
2023/04/13 03:57:07;;;;;;;9.82;1.38;;;;;;;-146.27;100.00;84120.16;5086025;28;20028;-64
2023/04/13 03:59:33;;;;;;;8.88;1.83;;;;;;;-146.27;100.00;84136.25;5090893;28;20032;-65
2023/04/13 04:01:58;;;;;;;9.68;1.42;;;;;;;-146.27;100.00;84092.03;5091148;28;20027;-64
2023/04/13 04:04:24;;;;;;;8.80;1.25;;;;;;;-146.27;100.00;84112.13;5091667;28;20051;-64
2023/04/13 04:06:50;;;;;;;6.35;1.50;;;;;;;-146.27;99.24;84124.19;5092637;28;20403;-64
2023/04/13 04:09:15;;;;;;;6.28;1.23;;;;;;;-146.27;99.39;84096.06;5082619;28;20081;-64
2023/04/13 04:11:40;;;;;;;4.30;1.15;;;;;;;-146.27;98.99;84063.91;5084718;28;20050;-65
2023/04/13 04:14:06;;;;;;;6.97;1.40;;;;;;;-146.27;99.54;84088.00;5095106;28;20028;-64
2023/04/13 04:16:31;;;;;;;8.65;1.67;;;;;;;-146.27;98.20;84055.84;5091397;28;20016;-65
2023/04/13 04:18:57;;;;;;;3.60;1.00;;;;;;;-146.27;98.33;84090.03;5089621;28;20499;-64
2023/04/13 04:21:22;;;;;;;2.97;0.98;;;;;;;-146.27;98.78;84126.19;5091900;28;20035;-65
2023/04/13 04:23:48;;;;;;;6.65;0.80;;;;;;;-146.27;98.55;84096.06;5087847;28;20030;-63
2023/04/13 04:26:13;;;;;;;5.43;1.40;;;;;;;-146.27;98.45;84200.56;5087627;28;20090;-64
2023/04/13 04:28:39;;;;;;;2.65;0.80;;;;;;;-146.27;97.03;84108.09;5089877;28;20031;-65
2023/04/13 04:31:09;;;;;;;7.70;1.17;;;;;;;-146.27;95.94;84086.00;5084922;28;20020;-63
2023/04/13 04:33:37;;;;;;;2.35;0.80;;;;;;;-146.27;96.37;84086.00;5083599;28;20066;-65
2023/04/13 04:36:04;;;;;;;5.53;1.02;;;;;;;-146.27;100.00;84096.06;5092925;28;20032;-65
2023/04/13 04:38:31;;;;;;;6.75;1.50;;;;;;;-146.27;100.00;84104.09;5080471;28;20023;-65
2023/04/13 04:40:58;;;;;;;4.32;1.08;;;;;;;-146.27;100.00;84100.06;5092923;28;20043;-64
2023/04/13 04:43:28;;;;;;;3.33;1.20;;;;;;;-146.27;100.00;84172.41;5090560;28;20123;-66
2023/04/13 04:45:56;;;;;;;10.32;1.08;;;;;;;-146.27;100.00;84170.41;5088111;28;20017;-64
2023/04/13 04:48:25;;;;;;;12.57;1.52;;;;;;;-146.27;100.00;84180.47;5090004;28;20087;-65
2023/04/13 04:50:54;;;;;;;12.07;1.35;;;;;;;-146.27;100.00;84178.44;5085154;28;20460;-65
2023/04/13 04:53:20;;;;;;;7.53;1.20;;;;;;;-146.27;100.00;84196.53;5088234;28;20028;-65
2023/04/13 04:55:45;;;;;;;6.45;1.42;;;;;;;-146.27;100.00;84144.28;5083258;28;20501;-65
2023/04/13 04:58:11;;;;;;;5.00;1.38;;;;;;;-146.27;100.00;84188.50;5087740;28;20021;-64
2023/04/13 05:00:37;;;;;;;4.03;1.05;;;;;;;-146.27;100.00;84180.47;5085688;28;20032;-65
2023/04/13 05:03:02;;;;;;;4.45;1.02;;;;;;;-146.27;100.00;84188.50;5085875;28;20052;-65
2023/04/13 05:05:30;;;;;;;7.38;1.08;;;;;;;-146.27;100.00;84172.41;5088982;28;20031;-63
2023/04/13 05:07:56;;;;;;;3.50;0.82;;;;;;;-146.27;100.00;84160.38;5082703;28;20403;-64
2023/04/13 05:10:23;;;;;;;6.47;1.33;;;;;;;-146.27;100.00;84176.44;5083693;28;20021;-65
2023/04/13 05:12:49;;;;;;;5.35;0.82;;;;;;;-146.27;100.00;84150.31;5085073;28;20409;-65
2023/04/13 05:15:15;;;;;;;6.95;1.35;;;;;;;-146.27;100.00;84160.38;5086719;28;20032;-64
2023/04/13 05:17:40;;;;;;;9.02;1.20;;;;;;;-146.27;100.00;84132.22;5083462;28;20437;-65
2023/04/13 05:20:06;;;;;;;13.73;1.27;;;;;;;-146.27;100.00;84152.31;5090284;28;20047;-65
2023/04/13 05:22:32;;;;;;;10.40;2.40;;;;;;;-146.27;100.00;84160.38;5080356;28;20028;-64
2023/04/13 05:24:57;;;;;;;5.75;1.55;;;;;;;-146.27;100.00;84138.25;5077167;28;20082;-64
2023/04/13 05:27:23;;;;;;;6.25;1.10;;;;;;;-146.27;100.00;84188.50;5087306;28;20099;-64
2023/04/13 05:29:48;;;;;;;6.75;1.05;;;;;;;-146.27;100.00;84188.50;5090680;28;20032;-65
2023/04/13 05:32:13;;;;;;;5.50;0.90;;;;;;;-146.27;100.00;84148.31;5086418;28;20027;-65
2023/04/13 05:34:39;;;;;;;7.70;1.00;;;;;;;-146.27;100.00;84146.28;5089792;28;20052;-65
2023/04/13 05:37:04;;;;;;;5.20;0.75;;;;;;;-146.27;100.00;84124.19;5087946;28;20051;-65
2023/04/13 05:39:30;;;;;;;9.48;1.20;;;;;;;-146.27;100.00;84132.22;5078977;28;20024;-66
2023/04/13 05:41:56;;;;;;;9.20;1.50;;;;;;;-146.27;100.00;84114.13;5088165;28;20022;-65
2023/04/13 05:44:21;;;;;;;9.00;1.42;;;;;;;-146.27;100.00;84112.13;5090106;28;20039;-66
2023/04/13 05:46:49;;;;;;;7.30;1.48;;;;;;;-146.27;100.00;84110.13;5090555;28;20035;-65
2023/04/13 05:49:14;;;;;;;10.52;1.77;;;;;;;-146.27;100.00;84124.19;5074977;28;20032;-65
2023/04/13 05:51:40;;;;;;;7.72;0.88;;;;;;;-146.27;100.00;84088.00;5083761;28;20025;-65
2023/04/13 05:54:08;;;;;;;13.05;1.52;;;;;;;-146.27;100.00;84055.84;5081583;28;20433;-66
2023/04/13 05:56:34;;;;;;;6.03;1.73;;;;;;;-146.27;100.00;84059.88;5085784;28;20051;-66
2023/04/13 05:58:59;;;;;;;9.18;1.58;;;;;;;-146.27;100.00;84027.72;5080069;28;20032;-65
2023/04/13 06:01:28;;;;;;;12.45;1.48;;;;;;;-146.27;100.00;84039.78;5084665;28;20020;-68
2023/04/13 06:03:54;;;;;;;9.75;1.17;;;;;;;-146.27;100.00;84033.75;5092277;28;20028;-65
2023/04/13 06:06:20;;;;;;;14.57;1.67;;;;;;;-146.27;100.00;84013.66;5090435;28;20075;-66
2023/04/13 06:08:45;;;;;;;5.70;1.27;;;;;;;-146.27;100.00;83983.50;5091413;28;20415;-66
2023/04/13 06:11:11;;;;;;;7.90;2.10;;;;;;;-146.27;100.00;84021.69;5092410;28;20046;-65
2023/04/13 06:13:37;;;;;;;13.45;2.15;;;;;;;-146.27;100.00;83987.53;5089240;28;20028;-66
2023/04/13 06:16:03;;;;;;;11.77;2.00;;;;;;;-146.27;100.00;83983.50;5092110;28;20058;-67
2023/04/13 06:18:28;;;;;;;7.10;1.35;;;;;;;-146.27;100.00;83981.50;5092170;28;20055;-67
2023/04/13 06:20:54;;;;;;;14.63;1.60;;;;;;;-146.27;100.00;83991.56;5090328;28;20008;-66
2023/04/13 06:23:21;;;;;;;3.85;1.30;;;;;;;-146.27;100.00;84043.81;5089582;28;20034;-66
2023/04/13 06:25:46;;;;;;;4.38;1.05;;;;;;;-146.27;100.00;84079.97;5093589;28;20028;-66
2023/04/13 06:28:12;;;;;;;7.40;1.30;;;;;;;-146.27;100.00;84071.94;5088848;28;20077;-66
2023/04/13 06:30:37;;;;;;;9.25;1.10;;;;;;;-146.27;100.00;84049.84;5087755;28;20024;-67
2023/04/13 06:33:03;;;;;;;7.00;1.77;;;;;;;-146.27;100.00;84035.75;5088947;28;20052;-66
2023/04/13 06:35:35;;;;;;;12.32;1.90;;;;;;;-146.27;100.00;84035.75;5088198;28;20024;-66
2023/04/13 06:38:01;;;;;;;10.70;1.48;;;;;;;-146.27;100.00;84019.69;5086533;28;20020;-67
2023/04/13 06:40:27;;;;;;;18.95;1.65;;;;;;;-146.27;100.00;84035.75;5093576;28;20016;-67
2023/04/13 06:42:53;;;;;;;12.18;1.40;;;;;;;-146.27;100.00;84130.22;5083736;28;20530;-67
2023/04/13 06:45:20;;;;;;;12.30;1.58;;;;;;;-146.27;100.00;84120.16;5080357;28;20032;-66
2023/04/13 06:47:46;;;;;;;9.05;1.85;;;;;;;-146.27;100.00;84100.06;5091583;28;20537;-66
2023/04/13 06:50:14;;;;;;;11.00;2.33;;;;;;;-146.27;100.00;84176.44;5090545;28;20024;-66
2023/04/13 06:52:44;;;;;;;10.82;1.67;;;;;;;-146.27;100.00;84156.34;5083356;28;20070;-67
2023/04/13 06:55:10;;;;;;;15.25;2.38;;;;;;;-146.27;100.00;84160.38;5090360;28;20024;-67
2023/04/13 06:57:35;;;;;;;13.00;2.10;;;;;;;-146.27;100.00;84152.31;5093391;28;20089;-66
2023/04/13 07:00:01;;;;;;;12.27;2.38;;;;;;;-146.27;100.00;84134.22;5084876;28;20640;-66
2023/04/13 07:02:26;;;;;;;14.63;1.98;;;;;;;-146.27;100.00;84110.13;5091411;28;20107;-65
2023/04/13 07:04:52;;;;;;;8.15;1.67;;;;;;;-146.27;100.00;84084.00;5090105;28;20032;-65
2023/04/13 07:07:17;;;;;;;8.13;1.60;;;;;;;-146.27;100.00;84031.75;5093529;28;20051;-65
2023/04/13 07:09:43;;;;;;;17.33;2.28;;;;;;;-146.27;100.00;84013.66;5088553;28;20031;-66
2023/04/13 07:12:08;;;;;;;16.85;1.70;;;;;;;-146.27;100.00;84027.72;5079973;28;20023;-65
2023/04/13 07:14:35;;;;;;;17.98;2.58;;;;;;;-146.27;100.00;84023.69;5087965;28;20038;-67
2023/04/13 07:17:01;;;;;;;10.30;1.90;;;;;;;-146.27;100.00;83999.59;5076912;28;20051;-66
2023/04/13 07:19:29;;;;;;;16.85;2.20;;;;;;;-146.27;100.00;83915.19;5090904;28;20111;-66
2023/04/13 07:21:55;;;;;;;18.35;1.92;;;;;;;-146.27;100.00;83961.41;5091828;28;20062;-65
2023/04/13 07:24:21;;;;;;;14.45;2.50;;;;;;;-146.27;100.00;83947.34;5090575;28;20438;-66
2023/04/13 07:26:46;;;;;;;11.38;1.88;;;;;;;-146.27;100.00;83973.47;5090733;28;20052;-65
2023/04/13 07:29:15;;;;;;;9.52;2.03;;;;;;;-146.27;100.00;83949.34;5092411;28;20441;-65
2023/04/13 07:31:40;;;;;;;14.75;2.20;;;;;;;-146.27;100.00;83981.50;5092486;28;20028;-66
2023/04/13 07:34:05;;;;;;;9.38;2.97;;;;;;;-146.27;100.00;83939.31;5093320;28;20042;-64
2023/04/13 07:36:31;;;;;;;9.93;2.33;;;;;;;-146.27;100.00;83953.38;5092874;28;20019;-66
2023/04/13 07:38:57;;;;;;;12.73;1.80;;;;;;;-146.27;99.01;83961.41;5087452;28;20028;-65
2023/04/13 07:41:23;;;;;;;14.30;1.77;;;;;;;-146.27;98.87;83921.22;5082939;28;20022;-65
2023/04/13 07:43:49;;;;;;;14.60;1.90;;;;;;;-146.27;99.22;83927.25;5091812;28;20031;-67
2023/04/13 07:46:15;;;;;;;9.45;2.22;;;;;;;-146.27;96.14;83945.31;5092804;28;20455;-66
2023/04/13 07:48:40;;;;;;;20.15;1.83;;;;;;;-146.27;97.10;83923.22;5083012;28;20024;-65
2023/04/13 07:51:14;;;;;;;9.38;1.80;;;;;;;-146.27;94.61;83883.03;5091765;28;20383;-66
2023/04/13 07:53:39;;;;;;;17.60;1.92;;;;;;;-146.27;93.59;83919.19;5091357;28;20028;-66
2023/04/13 07:56:05;;;;;;;11.48;2.30;;;;;;;-146.27;92.86;83939.31;5076476;28;20452;-67
2023/04/13 07:58:31;;;;;;;13.45;2.35;;;;;;;-146.27;93.97;83889.06;5072079;28;20067;-65
2023/04/13 08:00:56;;;;;;;16.80;1.80;;;;;;;-146.27;92.95;83870.97;5071277;28;20075;-67
2023/04/13 08:03:22;;;;;;;12.77;1.75;;;;;;;-146.27;92.70;83919.19;5074614;28;20017;-65
2023/04/13 08:05:47;;;;;;;14.52;1.65;;;;;;;-146.27;92.82;83899.09;5085660;28;20467;-65
2023/04/13 08:08:12;;;;;;;14.20;2.50;;;;;;;-146.27;91.39;83911.16;5091000;28;20131;-64
2023/04/13 08:10:38;;;;;;;11.77;2.10;;;;;;;-146.27;90.99;83891.06;5088259;28;20024;-65
2023/04/13 08:13:03;;;;;;;8.55;1.75;;;;;;;-146.27;91.47;83872.97;5087520;28;20035;-65
2023/04/13 08:15:28;;;;;;;12.10;1.45;;;;;;;-146.27;89.88;83943.31;5087128;28;20053;-66
2023/04/13 08:17:54;;;;;;;12.95;2.78;;;;;;;-146.27;89.33;83870.97;5083393;28;20443;-65
2023/04/13 08:20:20;;;;;;;13.05;1.83;;;;;;;-146.27;88.95;83913.19;5082573;28;20032;-66
2023/04/13 08:22:45;;;;;;;12.80;2.65;;;;;;;-146.27;88.91;83870.97;5089801;28;20028;-65
2023/04/13 08:25:10;;;;;;;19.98;2.08;;;;;;;-146.27;88.72;83862.94;5085210;28;20032;-65
2023/04/13 08:27:36;;;;;;;7.43;1.80;;;;;;;-146.27;87.47;83854.91;5078526;28;20032;-66
2023/04/13 08:30:04;;;;;;;13.45;1.90;;;;;;;-146.27;87.47;83907.16;5081759;28;20074;-64
2023/04/13 08:32:29;;;;;;;8.68;1.50;;;;;;;-146.27;85.94;83820.75;5083418;28;20021;-66
2023/04/13 08:34:55;;;;;;;8.70;1.65;;;;;;;-146.27;86.70;83846.84;5084903;28;20039;-66
2023/04/13 08:37:20;;;;;;;15.10;1.42;;;;;;;-146.27;86.65;83794.63;5085430;28;20024;-66
2023/04/13 08:39:47;;;;;;;12.55;1.88;;;;;;;-146.27;85.97;83824.75;5080879;28;20036;-67
2023/04/13 08:42:13;;;;;;;11.23;2.13;;;;;;;-146.27;84.01;83806.66;5090777;28;20120;-66
2023/04/13 08:44:39;;;;;;;12.40;2.20;;;;;;;-146.27;83.45;83764.47;5090186;28;20032;-65
2023/04/13 08:47:04;;;;;;;11.45;2.00;;;;;;;-146.27;82.61;83746.38;5082017;28;20032;-66
2023/04/13 08:49:31;;;;;;;12.38;2.03;;;;;;;-146.27;81.81;83730.31;5089405;28;20456;-64
2023/04/13 08:51:58;;;;;;;14.48;1.92;;;;;;;-146.27;81.62;83758.44;5092843;28;20103;-65
2023/04/13 08:54:27;;;;;;;11.02;2.08;;;;;;;-146.27;82.20;83712.22;5088967;28;20023;-65
2023/04/13 08:56:54;;;;;;;11.00;1.80;;;;;;;-146.27;81.71;83682.09;5086018;28;20036;-64
2023/04/13 08:59:21;;;;;;;10.30;1.63;;;;;;;-146.27;78.53;83700.16;5091559;28;20028;-65
2023/04/13 09:01:48;;;;;;;13.43;1.45;;;;;;;-146.27;76.10;83718.25;5086640;28;20028;-65
2023/04/13 09:04:18;;;;;;;12.80;1.75;;;;;;;-146.27;76.59;83708.22;5092848;28;20471;-64
2023/04/13 09:06:49;;;;;;;10.23;2.30;;;;;;;-146.27;78.28;83676.06;5090451;28;20584;-65
2023/04/13 09:09:15;;;;;;;11.93;2.08;;;;;;;-146.27;76.62;83708.22;5089912;28;20059;-64
2023/04/13 09:11:42;;;;;;;11.55;1.85;;;;;;;-146.27;75.34;83589.66;5088875;28;20028;-64
2023/04/13 09:14:08;;;;;;;15.93;2.08;;;;;;;-146.27;75.50;83666.00;5092612;28;20048;-65
2023/04/13 09:16:41;;;;;;;14.25;1.75;;;;;;;-146.27;75.40;83651.94;5092049;28;20028;-65
2023/04/13 09:19:07;;;;;;;10.50;1.98;;;;;;;-146.27;75.61;83647.91;5092598;28;20446;-64
2023/04/13 09:21:41;;;;;;;16.08;2.05;;;;;;;-146.27;75.31;83684.09;5092569;28;20024;-65
2023/04/13 09:24:07;;;;;;;9.73;1.90;;;;;;;-146.27;73.75;83672.03;5089333;28;20089;-64
2023/04/13 09:26:42;;;;;;;8.73;1.73;;;;;;;-146.27;73.95;83718.25;5078741;28;20476;-66
2023/04/13 09:29:12;;;;;;;7.57;2.20;;;;;;;-146.27;76.44;83722.28;5072290;28;20035;-65
2023/04/13 09:31:38;;;;;;;10.80;1.52;;;;;;;-146.27;76.60;83686.09;5081223;28;20020;-65
2023/04/13 09:34:04;;;;;;;10.85;1.95;;;;;;;-146.27;76.71;83686.09;5090618;28;20460;-66
2023/04/13 09:36:31;;;;;;;8.52;2.00;;;;;;;-146.27;75.92;83668.00;5092282;28;20032;-64
2023/04/13 09:38:56;;;;;;;14.43;2.10;;;;;;;-146.27;77.24;83726.28;5084872;28;20530;-65
2023/04/13 09:41:33;;;;;;;13.80;2.33;;;;;;;-146.27;79.12;83692.13;5085637;28;20111;-66
2023/04/13 09:44:00;;;;;;;10.27;1.70;;;;;;;-146.27;77.50;83670.03;5091578;28;20035;-64
2023/04/13 09:46:26;;;;;;;9.43;1.98;;;;;;;-146.27;76.02;83676.06;5081380;28;20024;-65
2023/04/13 09:49:01;;;;;;;9.15;1.65;;;;;;;-146.27;76.63;83664.00;5083629;28;20157;-65
2023/04/13 09:51:35;;;;;;;20.65;2.13;;;;;;;-146.27;76.10;83637.88;5079827;28;20499;-65
2023/04/13 09:54:01;;;;;;;14.77;1.52;;;;;;;-146.27;76.00;83639.88;5090019;28;20058;-64
2023/04/13 09:56:26;;;;;;;13.13;1.50;;;;;;;-146.27;75.63;83555.50;5090464;28;20024;-65
2023/04/13 09:58:52;;;;;;;13.85;1.85;;;;;;;-146.27;74.52;83541.41;5092104;28;20139;-65
2023/04/13 10:01:19;;;;;;;14.18;1.83;;;;;;;-146.27;72.85;83485.16;5084132;28;20080;-64
2023/04/13 10:03:45;;;;;;;11.07;2.00;;;;;;;-146.27;70.32;83505.25;5087997;28;20039;-64
2023/04/13 10:06:11;;;;;;;11.13;1.70;;;;;;;-146.27;70.15;83455.03;5090749;28;20024;-65
2023/04/13 10:08:38;;;;;;;10.25;1.70;;;;;;;-146.27;67.10;83517.31;5089560;28;20057;-67
2023/04/13 10:11:09;;;;;;;14.27;1.38;;;;;;;-146.27;69.32;83543.44;5090513;28;20044;-66
2023/04/13 10:13:52;;;;;;;8.00;1.60;;;;;;;-146.27;67.45;83453.00;5089940;28;20472;-65
2023/04/13 10:16:44;;;;;;;11.57;1.73;;;;;;;-146.27;68.17;83503.25;5084920;28;20480;-63
2023/04/13 10:19:11;;;;;;;8.68;2.30;;;;;;;-146.27;68.64;83529.38;5078527;28;20107;-65
2023/04/13 10:21:41;;;;;;;9.73;1.45;;;;;;;-146.27;69.10;83513.28;5087602;28;20032;-65
2023/04/13 10:24:12;;;;;;;13.45;2.05;;;;;;;-146.27;70.29;83487.16;5090882;28;20020;-65
2023/04/13 10:26:39;;;;;;;8.15;1.70;;;;;;;-146.27;67.25;83533.38;5088193;28;20116;-64
2023/04/13 10:29:06;;;;;;;11.63;1.35;;;;;;;-146.27;68.46;83623.81;5077506;28;20033;-65
2023/04/13 10:31:45;;;;;;;11.10;1.55;;;;;;;-146.27;69.27;83601.72;5087803;28;20366;-65
2023/04/13 10:34:26;;;;;;;11.55;2.25;;;;;;;-146.27;69.03;83627.81;5078179;28;20056;-65
2023/04/13 10:36:54;;;;;;;12.85;2.05;;;;;;;-146.27;67.45;83587.63;5084721;28;20429;-65
2023/04/13 10:39:26;;;;;;;10.60;1.27;;;;;;;-146.27;68.05;83593.66;5089936;28;20020;-65
2023/04/13 10:42:01;;;;;;;11.85;1.85;;;;;;;-146.27;69.96;83597.69;5090531;28;20032;-64
2023/04/13 10:44:28;;;;;;;10.32;2.08;;;;;;;-146.27;71.47;83599.69;5083944;28;20097;-65
2023/04/13 10:46:53;;;;;;;9.05;1.70;;;;;;;-146.27;71.96;83635.88;5070094;28;20020;-63
2023/04/13 10:49:29;;;;;;;13.23;1.70;;;;;;;-146.27;70.79;83645.91;5077405;28;20371;-64
2023/04/13 10:51:55;;;;;;;9.32;1.40;;;;;;;-146.27;70.52;83563.53;5076070;28;20035;-66
2023/04/13 10:54:21;;;;;;;11.27;2.40;;;;;;;-146.27;66.97;83505.25;5083053;28;20028;-65
2023/04/13 10:57:01;;;;;;;9.48;1.60;;;;;;;-146.27;67.05;83459.03;5080304;28;20144;-65
2023/04/13 10:59:48;;;;;;;10.18;1.65;;;;;;;-146.27;69.16;83513.28;5094556;28;20059;-66
2023/04/13 11:02:15;;;;;;;11.07;2.50;;;;;;;-146.27;69.65;83459.03;5082132;28;20039;-65
2023/04/13 11:04:43;;;;;;;15.60;2.10;;;;;;;-146.27;68.33;83621.81;5082176;28;20059;-64
2023/04/13 11:07:19;;;;;;;14.98;2.03;;;;;;;-146.27;70.49;83653.94;5084194;28;20500;-65
2023/04/13 11:09:46;;;;;;;9.80;1.45;;;;;;;-146.27;68.25;83593.66;5088952;28;20032;-65